Westby, Montana
Current Conditions -  °F | °C
As of 3:55 AM on Friday 19 Dec 2014 (Local Time) from KD50 Reporting Station
Haze Haze  
Wind Chill: 16°   Ceiling: 200
Heat Index: 25°   Visibility: 3mi
Dew Point: 25°   Wind: 8mph
Humidity: 100%   Direction: 270°W
Pressure: 29.92"   Gusts: NA
Location:  48.87°N, 104.05°W
Report Text: KD50 191055Z AUTO 27007KT 3SM BR OVC002 M04/M04 A2992 RMK AO2
Loading
Personal Weather Stations






























Interactive Weather Map New forecast layout! Learn more

10-Day Weather Forecast

Advertisements
Track Severe Weather on mobile